Time;durP1;ratioP1;P1;durP2;ratioP2;P2;SDS_P1;SDS_P2;PMS_P1;PMS_P2;Temp;Humidity;BMP_temperature;BMP_pressure;BME280_temperature;BME280_humidity;BME280_pressure;Samples;Min_cycle;Max_cycle;Signal;HPM_P1;HPM_P2
2024/02/06 00:03:58;;;;;;;16.75;3.83;;;10.70;1.20;;;;;;20640815;28;20045;-40
2024/02/06 00:13:58;;;;;;;17.77;3.80;;;10.70;2.20;;;;;;20637100;28;20128;-40
2024/02/06 00:24:01;;;;;;;19.42;3.67;;;10.70;1.80;;;;;;20640207;28;20034;-40
2024/02/06 00:34:01;;;;;;;17.63;4.80;;;10.80;1.00;;;;;;20641817;28;20493;-41
2024/02/06 00:44:02;;;;;;;17.88;3.58;;;10.80;1.00;;;;;;20645494;28;20688;-40
2024/02/06 00:54:03;;;;;;;19.63;4.43;;;10.80;1.00;;;;;;20661329;28;20556;-40
2024/02/06 01:04:05;;;;;;;15.48;3.80;;;10.90;1.00;;;;;;20655660;28;20556;-40
2024/02/06 01:14:05;;;;;;;24.58;4.25;;;10.90;1.00;;;;;;20655995;28;20062;-40
2024/02/06 01:24:06;;;;;;;23.38;3.47;;;11.00;1.00;;;;;;20657523;28;20438;-40
2024/02/06 01:34:07;;;;;;;19.30;3.53;;;11.00;1.00;;;;;;20651743;28;20057;-40
2024/02/06 01:44:08;;;;;;;18.85;4.18;;;11.10;1.00;;;;;;20649781;28;20045;-40
2024/02/06 01:54:08;;;;;;;14.00;3.13;;;11.00;1.00;;;;;;20650098;28;20035;-40
2024/02/06 02:04:10;;;;;;;16.67;3.57;;;11.10;1.00;;;;;;20651598;28;20251;-40
2024/02/06 02:14:10;;;;;;;11.93;3.40;;;11.10;1.00;;;;;;20653305;28;20468;-41
2024/02/06 02:24:11;;;;;;;19.90;3.22;;;11.10;1.00;;;;;;20658806;28;20556;-40
2024/02/06 02:34:11;;;;;;;22.67;4.22;;;11.10;1.00;;;;;;20655630;28;20100;-40
2024/02/06 02:44:12;;;;;;;16.38;3.30;;;11.20;1.00;;;;;;20650396;28;20050;-40
2024/02/06 02:54:15;;;;;;;20.08;3.30;;;11.20;1.00;;;;;;20649148;28;20297;-40
2024/02/06 03:04:15;;;;;;;19.52;4.00;;;11.20;1.00;;;;;;20644447;28;20077;-40
2024/02/06 03:14:16;;;;;;;16.52;3.60;;;11.20;1.00;;;;;;20640713;28;20064;-40
2024/02/06 03:24:16;;;;;;;14.82;3.55;;;11.10;1.00;;;;;;20644659;28;20065;-40
2024/02/06 03:34:17;;;;;;;16.80;3.28;;;11.20;1.00;;;;;;20644617;28;20568;-40
2024/02/06 03:44:18;;;;;;;21.10;4.20;;;11.20;1.00;;;;;;20645962;28;20329;-40
2024/02/06 03:54:18;;;;;;;21.35;3.17;;;11.20;1.00;;;;;;20645794;28;20042;-40
2024/02/06 04:04:19;;;;;;;18.75;4.45;;;11.20;1.00;;;;;;20638952;28;20081;-41
2024/02/06 04:14:20;;;;;;;18.40;4.72;;;11.20;1.00;;;;;;20640727;28;20046;-40
2024/02/06 04:24:20;;;;;;;21.50;5.75;;;11.10;2.20;;;;;;20642829;28;20544;-40
2024/02/06 04:34:21;;;;;;;18.70;4.10;;;11.10;4.40;;;;;;20639201;28;20038;-40
2024/02/06 04:44:21;;;;;;;25.00;4.72;;;11.20;7.30;;;;;;20643272;28;20371;-40
2024/02/06 04:54:22;;;;;;;18.05;4.45;;;11.10;11.50;;;;;;20646415;28;20446;-40
2024/02/06 05:04:23;;;;;;;27.60;5.05;;;11.20;9.20;;;;;;20644236;28;20046;-40
2024/02/06 05:14:25;;;;;;;16.40;3.35;;;11.30;6.00;;;;;;20636003;28;20121;-40
2024/02/06 05:24:26;;;;;;;24.25;4.25;;;11.50;2.00;;;;;;20641228;28;20435;-40
2024/02/06 05:34:27;;;;;;;16.23;3.13;;;11.40;1.30;;;;;;20649186;28;20042;-40
2024/02/06 05:44:27;;;;;;;25.13;4.03;;;11.40;1.00;;;;;;20652587;28;20200;-40
2024/02/06 05:54:28;;;;;;;24.17;4.03;;;11.50;1.00;;;;;;20658126;28;20066;-40
2024/02/06 06:04:29;;;;;;;24.85;4.57;;;11.50;1.30;;;;;;20648912;28;20057;-40
2024/02/06 06:14:29;;;;;;;29.30;4.32;;;11.50;1.00;;;;;;20645988;28;20034;-40
2024/02/06 06:24:30;;;;;;;20.48;4.72;;;11.50;1.00;;;;;;20654239;28;20387;-40
2024/02/06 06:34:30;;;;;;;25.52;5.03;;;11.50;1.00;;;;;;20658496;28;20133;-40
2024/02/06 06:44:31;;;;;;;25.52;4.43;;;11.50;1.00;;;;;;20654476;28;20061;-40
2024/02/06 06:54:32;;;;;;;19.50;3.97;;;11.50;1.00;;;;;;20658528;28;20161;-41
2024/02/06 07:04:34;;;;;;;20.90;4.00;;;11.50;1.00;;;;;;20651810;28;20828;-40
2024/02/06 07:14:37;;;;;;;24.55;4.25;;;11.50;1.60;;;;;;20656620;28;20033;-40
2024/02/06 07:24:37;;;;;;;27.02;5.40;;;11.40;5.30;;;;;;20654494;28;20079;-40
2024/02/06 07:34:38;;;;;;;23.33;4.78;;;11.30;9.20;;;;;;20652022;28;20031;-40
2024/02/06 07:44:39;;;;;;;32.33;6.15;;;11.30;12.50;;;;;;20649649;28;20166;-40
2024/02/06 07:54:39;;;;;;;31.90;5.45;;;11.50;11.30;;;;;;20650181;28;20037;-40
2024/02/06 08:04:41;;;;;;;22.10;5.30;;;11.50;10.00;;;;;;20650159;28;20057;-40
2024/02/06 08:14:42;;;;;;;30.83;5.43;;;11.50;8.50;;;;;;20657591;28;20133;-40
2024/02/06 08:24:43;;;;;;;48.17;10.25;;;11.50;10.60;;;;;;20649568;28;20096;-40
2024/02/06 08:34:43;;;;;;;27.65;5.70;;;11.60;9.30;;;;;;20648722;28;20406;-40
2024/02/06 08:44:44;;;;;;;33.67;7.65;;;11.60;6.60;;;;;;20651164;28;20549;-40
2024/02/06 08:54:45;;;;;;;14.00;3.70;;;11.70;4.50;;;;;;20656588;28;20424;-40
2024/02/06 09:04:45;;;;;;;20.05;3.53;;;11.80;1.10;;;;;;20654586;28;21101;-40
2024/02/06 09:14:46;;;;;;;17.67;2.95;;;12.00;1.00;;;;;;20664491;28;20088;-40
2024/02/06 09:24:46;;;;;;;18.48;3.90;;;12.00;1.00;;;;;;20664347;28;20038;-40
2024/02/06 09:34:47;;;;;;;26.83;4.68;;;12.10;1.00;;;;;;20667454;28;20303;-40
2024/02/06 09:44:48;;;;;;;22.25;3.60;;;12.10;1.00;;;;;;20662284;28;20488;-40
2024/02/06 09:54:50;;;;;;;28.08;5.80;;;12.10;1.00;;;;;;20666547;28;20580;-40
2024/02/06 10:04:53;;;;;;;23.35;3.78;;;12.10;1.00;;;;;;20667239;28;20175;-40
2024/02/06 10:14:53;;;;;;;16.90;3.80;;;12.30;1.00;;;;;;20661337;28;20049;-39
2024/02/06 10:25:03;;;;;;;20.15;4.65;;;12.40;1.00;;;;;;20663896;28;20490;-39
2024/02/06 10:35:08;;;;;;;16.30;3.20;;;12.50;1.00;;;;;;20663127;28;20096;-39
2024/02/06 10:45:16;;;;;;;19.20;3.65;;;12.60;1.00;;;;;;20658315;28;20046;-39
2024/02/06 10:55:16;;;;;;;16.90;3.83;;;12.70;1.00;;;;;;20658961;28;20058;-39
2024/02/06 11:05:48;;;;;;;18.08;3.00;;;12.80;1.00;;;;;;20666813;28;20401;-40
2024/02/06 11:15:52;;;;;;;17.02;2.90;;;12.90;1.00;;;;;;20667107;28;20039;-39
2024/02/06 11:25:53;;;;;;;13.65;3.55;;;12.90;1.00;;;;;;20666864;28;20076;-39
2024/02/06 11:35:54;;;;;;;11.43;2.90;;;12.90;1.00;;;;;;20666147;28;20042;-39
2024/02/06 11:46:03;;;;;;;11.07;2.60;;;12.80;1.00;;;;;;20660439;28;20769;-39
2024/02/06 11:56:04;;;;;;;14.32;2.88;;;12.70;1.00;;;;;;20655992;28;20092;-39
2024/02/06 12:06:07;;;;;;;14.90;2.75;;;12.80;1.00;;;;;;20655615;28;20038;-39
2024/02/06 12:16:08;;;;;;;15.23;3.60;;;12.90;1.00;;;;;;20647934;28;20522;-40
2024/02/06 12:26:09;;;;;;;19.75;3.78;;;12.90;1.00;;;;;;20652281;28;20092;-40
2024/02/06 12:36:09;;;;;;;21.85;4.78;;;13.00;1.00;;;;;;20655842;28;20078;-39
2024/02/06 12:46:10;;;;;;;22.83;3.33;;;12.90;1.00;;;;;;20654661;28;20038;-39
2024/02/06 12:56:12;;;;;;;16.65;2.97;;;12.90;1.00;;;;;;20653399;28;20504;-39
2024/02/06 13:06:13;;;;;;;21.10;5.43;;;12.80;1.00;;;;;;20661351;28;20046;-39
2024/02/06 13:16:14;;;;;;;22.70;4.57;;;12.70;1.00;;;;;;20653887;28;20104;-39
2024/02/06 13:26:15;;;;;;;19.00;3.70;;;12.60;1.00;;;;;;20655046;28;20038;-39
2024/02/06 13:36:16;;;;;;;23.57;3.67;;;12.60;1.00;;;;;;20652559;28;20137;-39
2024/02/06 13:46:16;;;;;;;25.42;4.07;;;12.50;1.00;;;;;;20657504;28;20569;-39
2024/02/06 13:56:18;;;;;;;20.40;4.43;;;12.40;1.00;;;;;;20661030;28;20074;-39
2024/02/06 14:06:19;;;;;;;38.35;7.43;;;12.40;1.00;;;;;;20652851;28;20053;-39
2024/02/06 14:16:21;;;;;;;27.83;7.60;;;12.30;1.00;;;;;;20649494;28;20044;-39
2024/02/06 14:26:22;;;;;;;20.88;4.68;;;12.30;1.00;;;;;;20652923;28;20109;-39
2024/02/06 14:36:22;;;;;;;17.50;3.80;;;12.30;1.00;;;;;;20649996;28;20037;-39
2024/02/06 14:46:23;;;;;;;14.23;3.25;;;12.30;1.00;;;;;;20645634;28;20084;-39
2024/02/06 14:56:23;;;;;;;22.15;4.72;;;12.30;1.00;;;;;;20645621;28;20081;-39
2024/02/06 15:06:27;;;;;;;28.27;6.45;;;12.30;1.00;;;;;;20645531;28;20045;-39
2024/02/06 15:16:27;;;;;;;18.73;4.80;;;12.30;1.00;;;;;;20602535;28;20465;-39
2024/02/06 15:26:29;;;;;;;30.90;6.32;;;12.30;1.00;;;;;;20649012;28;20038;-39
2024/02/06 15:36:38;;;;;;;24.77;4.72;;;12.30;1.00;;;;;;20678227;27;20631;-40
2024/02/06 15:46:41;;;;;;;24.83;4.97;;;12.20;1.00;;;;;;20689973;28;20029;-40
2024/02/06 15:56:42;;;;;;;35.50;6.60;;;12.20;1.00;;;;;;20694375;28;20103;-40
2024/02/06 16:06:43;;;;;;;32.50;7.05;;;12.10;1.00;;;;;;20703217;28;20493;-40
2024/02/06 16:16:47;;;;;;;37.92;8.63;;;12.20;1.00;;;;;;20705639;28;20509;-39
2024/02/06 16:26:47;;;;;;;29.50;6.75;;;12.10;1.00;;;;;;20665534;28;20034;-40
2024/02/06 16:36:48;;;;;;;34.33;8.90;;;12.10;1.00;;;;;;20670607;28;20042;-40
2024/02/06 16:46:48;;;;;;;38.90;10.00;;;12.10;1.00;;;;;;20632108;28;20033;-40
2024/02/06 16:56:50;;;;;;;34.28;6.18;;;11.90;3.70;;;;;;20667277;28;20490;-40
2024/02/06 17:06:51;;;;;;;37.08;8.75;;;11.70;5.50;;;;;;20657302;28;20038;-40
2024/02/06 17:16:52;;;;;;;28.27;6.40;;;11.80;4.70;;;;;;20652936;28;20445;-40
2024/02/06 17:26:53;;;;;;;29.73;7.82;;;11.90;2.50;;;;;;20615961;28;20034;-40
2024/02/06 17:36:53;;;;;;;25.40;5.57;;;12.00;2.20;;;;;;20551943;28;20070;-40
2024/02/06 17:46:54;;;;;;;31.05;6.25;;;12.10;1.00;;;;;;20538349;28;20038;-40
2024/02/06 17:56:54;;;;;;;41.40;11.82;;;12.10;1.70;;;;;;20564429;28;20228;-40
2024/02/06 18:06:55;;;;;;;29.83;6.72;;;12.00;8.90;;;;;;20589568;28;20112;-39
2024/02/06 18:17:15;;;;;;;33.23;7.70;;;11.80;25.20;;;;;;20590569;28;20030;-40
2024/02/06 18:27:16;;;;;;;28.55;7.15;;;11.60;41.60;;;;;;20596142;28;20042;-40
2024/02/06 18:37:16;;;;;;;31.30;6.93;;;11.50;55.40;;;;;;20583288;28;20042;-39
2024/02/06 18:47:17;;;;;;;45.47;10.40;;;11.50;71.50;;;;;;20585231;28;20478;-40
2024/02/06 18:57:18;;;;;;;30.83;7.93;;;11.40;84.80;;;;;;20594897;28;20567;-41
2024/02/06 19:07:18;;;;;;;37.63;8.13;;;11.30;99.90;;;;;;20611165;28;20564;-41
2024/02/06 19:17:19;;;;;;;32.78;8.07;;;11.20;99.90;;;;;;20576806;28;20093;-40
2024/02/06 19:27:20;;;;;;;36.47;8.43;;;11.00;99.90;;;;;;20588467;28;20042;-41
2024/02/06 19:37:20;;;;;;;28.63;7.60;;;11.00;99.90;;;;;;20612741;28;20026;-42
2024/02/06 19:47:22;;;;;;;28.15;5.88;;;10.90;99.90;;;;;;20593520;28;20753;-43
2024/02/06 19:57:24;;;;;;;24.00;5.65;;;10.90;99.90;;;;;;20588887;28;20053;-41
2024/02/06 20:07:25;;;;;;;22.80;5.82;;;10.90;99.90;;;;;;20601887;28;20433;-41
2024/02/06 20:17:26;;;;;;;27.20;6.32;;;10.90;99.90;;;;;;20590673;28;20372;-41
2024/02/06 20:27:26;;;;;;;21.00;5.20;;;10.90;99.90;;;;;;20584504;28;20054;-42
2024/02/06 20:37:27;;;;;;;24.55;5.72;;;10.90;99.90;;;;;;20598181;28;20027;-42
2024/02/06 20:47:27;;;;;;;18.23;4.78;;;11.00;99.90;;;;;;20595278;28;20052;-42
2024/02/06 20:57:29;;;;;;;15.30;5.13;;;11.00;99.90;;;;;;20592951;28;20571;-42
2024/02/06 21:07:29;;;;;;;20.92;5.35;;;11.00;99.90;;;;;;20582101;28;20042;-42
2024/02/06 21:17:32;;;;;;;15.60;4.20;;;11.10;99.90;;;;;;20610663;28;20042;-41
2024/02/06 21:27:33;;;;;;;15.43;3.97;;;11.00;99.90;;;;;;20612787;28;20176;-41
2024/02/06 21:37:33;;;;;;;20.20;5.57;;;11.00;99.90;;;;;;20598814;28;20077;-42
2024/02/06 21:47:36;;;;;;;18.50;4.60;;;11.00;99.90;;;;;;20605260;28;20461;-41
2024/02/06 21:57:37;;;;;;;20.83;4.95;;;11.00;99.90;;;;;;20578701;28;20449;-42
2024/02/06 22:07:37;;;;;;;9.10;2.20;;;11.00;99.90;;;;;;20597775;28;20035;-42
2024/02/06 22:17:39;;;;;;;2.63;0.80;;;10.60;99.90;;;;;;20592732;28;20042;-41
2024/02/06 22:27:40;;;;;;;3.63;0.98;;;9.50;99.90;;;;;;20600207;28;20524;-41
2024/02/06 22:37:40;;;;;;;4.32;1.42;;;8.80;99.90;;;;;;20571626;28;20054;-42
2024/02/06 22:47:41;;;;;;;3.20;1.42;;;8.50;99.90;;;;;;20598422;28;20038;-43
2024/02/06 22:57:41;;;;;;;3.80;1.40;;;8.10;99.90;;;;;;20601895;28;20564;-43
2024/02/06 23:07:42;;;;;;;8.00;0.80;;;7.90;99.90;;;;;;20600643;28;20040;-43
2024/02/06 23:17:46;;;;;;;4.65;0.65;;;7.40;99.90;;;;;;20596741;28;20112;-43
2024/02/06 23:27:47;;;;;;;8.10;0.90;;;7.10;99.90;;;;;;20603419;28;20042;-43
2024/02/06 23:37:48;;;;;;;11.32;1.00;;;6.80;99.90;;;;;;20612909;28;20050;-41
2024/02/06 23:47:48;;;;;;;6.85;1.15;;;6.70;99.90;;;;;;20612151;28;20429;-43
2024/02/06 23:57:49;;;;;;;8.23;1.00;;;6.60;99.90;;;;;;20626937;28;20165;-41
